Domov               UVHVVR             MKGP            O straneh              
ZDRAVSTVENO VARSTVO RASTLIN
  MREŽA AGROMET. POSTAJ
 ► PROGNOSTIČNA OBVESTILA
AGROMETEOROLOŠKI PODATKI -
ARSO
OBVLADOVANJE TVEGANJ ZARADI
NEUGODNIH VREMENSKIH RAZMER
  ► NARAVNE NESREČE
  ► SUŠA/MOČA
  ► NAMAKANJE
  ► ŽLED (gozdarstvo)
KARTOGRAFSKI PRIKAZI
SPLETNE POVEZAVE
PROJEKTI IN PUBLIKACIJE

AGROMETEOROLOŠKA MREŽA: VREMENSKE POSTAJE IN FENOLOŠKA OPAZOVANJA

Pregled podatkov za lokacijo Sebeborci, meteorološka postaja 25165

Pregled senzorjev na lokaciji

ID Ime Zadnja
vrednost
Datum
zadnje
spremembe
Tip
senzorja
2013 Omočenost lista (U) 5 U 23.7.2018 05:00 A730WET
2012 Padavine (mm) 0 mm 23.7.2018 05:00 Generic 0.2 mm
2014 Relativna vlaga 2 m (% RH) 90,31 % RH 23.7.2018 05:00 Generic 0 - 100 %
2015 Temperatura 2 m (°C) 16,04 °C 23.7.2018 05:00 Generic -40 - +60 °C

Pregled podatkov zadnjih 24 ur

Zap.
št.
Datum in čas Sebeborci
Omočenost
lista
Padavine Relativna
vlaga
2
m
Temperatura
2
m
1 23.7.2018 05:30
2 23.7.2018 05:00
3 23.7.2018 04:30
4 23.7.2018 04:00 5 0 90,3 16
5 23.7.2018 03:30 6 0 90,2 16,2
6 23.7.2018 03:00 4 0 89,7 16,3
7 23.7.2018 02:30 1 0 89,7 16,7
8 23.7.2018 02:00 0 0 87,8 17,3
9 23.7.2018 01:30 0 0 85,1 17,9
10 23.7.2018 01:00 0 0 84,2 18,2
11 23.7.2018 00:30 0 0 83,4 18,5
12 23.7.2018 00:00 0 0 84,4 18,4
13 22.7.2018 23:30 0 0 86,6 18,4
14 22.7.2018 23:00 0 0 87,8 18,4
15 22.7.2018 22:30 0 0 86,7 18,5
16 22.7.2018 22:00 0 0 86,6 18,6
17 22.7.2018 21:30 0 0 86,6 18,4
18 22.7.2018 21:00 0 0 85,1 18,5
19 22.7.2018 20:30 0 0 82,4 19
20 22.7.2018 20:00 0 0 80,5 19,2
21 22.7.2018 19:30 0 0 80 19,4
22 22.7.2018 19:00 0 0 78,7 19,9
23 22.7.2018 18:30 0 0 76,3 20,3
24 22.7.2018 18:00 0 0 75,5 20,8
25 22.7.2018 17:30 0 0 71,6 21,3
26 22.7.2018 17:00 0 0 69,7 22,4
27 22.7.2018 16:30 0 0 67,4 24,8
28 22.7.2018 16:00 0 0 59,5 26,8
29 22.7.2018 15:30 0 0 55,9 27,3
30 22.7.2018 15:00 0 0 55,6 25,6
31 22.7.2018 14:30 0 0 71,9 22,7
32 22.7.2018 14:00 0 0 73,2 22,3
33 22.7.2018 13:30 0 0 60,3 25,6
34 22.7.2018 13:00 0 0 71,9 21,6
35 22.7.2018 12:30 3 0 87,1 20,6
36 22.7.2018 12:00 0 0 72,3 24,5
37 22.7.2018 11:30 0 0 59 27
38 22.7.2018 11:00 0 0 56,7 26,8
39 22.7.2018 10:30 0 0 60,2 25,7
40 22.7.2018 10:00 0 0 59,6 25,1
41 22.7.2018 09:30 0 0 60,4 24,7
42 22.7.2018 09:00 2 0 59,8 24,6
43 22.7.2018 08:30 10 0 62,4 24,2
44 22.7.2018 08:00 10 0 68,7 22,1
45 22.7.2018 07:30 10 0 79,3 19,5
46 22.7.2018 07:00 10 0 92 18,1
47 22.7.2018 06:30 10 0 99,9 17,4
48 22.7.2018 06:00 10 0 99,9 16,9
© 2011 Ministrstvo za kmetijstvo, gozdarstvo in prehrano. Vse pravice pridržane.